Time;durP1;ratioP1;P1;durP2;ratioP2;P2;SDS_P1;SDS_P2;PMS_P1;PMS_P2;Temp;Humidity;BMP_temperature;BMP_pressure;BME280_temperature;BME280_humidity;BME280_pressure;Samples;Min_cycle;Max_cycle;Signal;HPM_P1;HPM_P2
2022/07/22 00:00:49;;;;;;;7.20;3.65;;;;;;;25.20;42.31;99988.88;4467506;32;34739;-83
2022/07/22 00:03:16;;;;;;;5.47;3.10;;;;;;;25.27;42.36;99985.28;4467186;32;33887;-85
2022/07/22 00:05:44;;;;;;;9.13;3.55;;;;;;;25.26;42.01;99982.66;4468269;32;33259;-85
2022/07/22 00:08:11;;;;;;;8.43;3.37;;;;;;;25.02;43.39;99986.47;4467914;32;34040;-85
2022/07/22 00:10:40;;;;;;;6.60;3.55;;;;;;;24.59;45.79;99982.50;4469235;32;33974;-83
2022/07/22 00:13:07;;;;;;;7.57;3.62;;;;;;;24.33;46.40;99987.97;4460173;32;33841;-84
2022/07/22 00:15:35;;;;;;;7.25;3.62;;;;;;;24.29;46.18;99986.25;4464327;32;33413;-82
2022/07/22 00:18:04;;;;;;;9.30;4.18;;;;;;;24.44;46.00;99985.25;4461140;32;34697;-82
2022/07/22 00:20:32;;;;;;;8.15;3.53;;;;;;;24.08;46.99;99982.88;4460262;32;34663;-85
2022/07/22 00:23:00;;;;;;;6.07;3.65;;;;;;;23.87;47.78;99988.31;4450220;32;33200;-82
2022/07/22 00:25:28;;;;;;;8.90;3.75;;;;;;;23.67;48.78;99981.34;4457564;32;33544;-87
2022/07/22 00:27:56;;;;;;;9.05;4.07;;;;;;;23.60;48.31;99984.91;4467536;32;33348;-82
2022/07/22 00:30:23;;;;;;;9.82;3.83;;;;;;;24.16;47.21;99989.88;4463443;32;33942;-81
2022/07/22 00:32:51;;;;;;;7.93;3.30;;;;;;;24.01;47.70;100002.34;4468748;32;33200;-81
2022/07/22 00:35:20;;;;;;;5.40;3.10;;;;;;;25.10;43.86;99997.84;4468089;32;32287;-81
2022/07/22 00:37:47;;;;;;;6.10;3.10;;;;;;;24.58;44.19;100006.34;4469561;32;33624;-81
2022/07/22 00:40:15;;;;;;;6.18;2.87;;;;;;;25.30;41.95;100002.94;4464061;32;33539;-81
2022/07/22 00:42:43;;;;;;;6.30;3.37;;;;;;;23.92;44.76;100008.56;4469515;32;34424;-82
2022/07/22 00:45:11;;;;;;;8.55;3.00;;;;;;;24.16;44.03;100011.94;4467210;32;33451;-82
2022/07/22 00:47:40;;;;;;;7.12;2.87;;;;;;;23.93;43.90;100012.09;4467385;32;33413;-81
2022/07/22 00:50:08;;;;;;;7.47;2.75;;;;;;;23.54;44.97;100011.41;4467189;32;33825;-82
2022/07/22 00:52:35;;;;;;;5.87;2.90;;;;;;;23.40;45.09;100018.53;4461604;32;33553;-81
2022/07/22 00:55:04;;;;;;;8.38;2.67;;;;;;;23.58;43.75;100017.56;4452947;32;33267;-82
2022/07/22 00:57:32;;;;;;;5.00;3.10;;;;;;;23.62;43.06;100017.50;4466315;32;33740;-84
2022/07/22 00:59:59;;;;;;;7.55;2.97;;;;;;;23.67;42.55;100013.09;4468828;32;33739;-82
2022/07/22 01:02:27;;;;;;;7.00;2.78;;;;;;;23.36;44.04;100018.53;4466018;32;34531;-81
2022/07/22 01:04:55;;;;;;;8.15;3.17;;;;;;;23.78;42.67;100014.78;4466014;32;32492;-81
2022/07/22 01:07:22;;;;;;;9.50;2.87;;;;;;;23.88;41.73;100011.25;4467464;32;33983;-82
2022/07/22 01:09:50;;;;;;;6.07;2.75;;;;;;;23.32;45.20;100008.84;4468447;32;34033;-84
2022/07/22 01:12:18;;;;;;;5.60;3.20;;;;;;;23.28;44.84;100004.47;4468912;32;33864;-85
2022/07/22 01:14:45;;;;;;;6.18;3.37;;;;;;;23.41;44.45;100017.63;4464150;32;33451;-83
2022/07/22 01:17:13;;;;;;;7.40;3.30;;;;;;;23.16;45.97;100020.37;4468620;32;34743;-83
2022/07/22 01:19:42;;;;;;;6.78;2.92;;;;;;;23.08;45.55;100011.56;4467984;32;34029;-83
2022/07/22 01:22:10;;;;;;;7.70;2.83;;;;;;;23.02;45.99;100016.84;4467228;32;33832;-85
2022/07/22 01:24:38;;;;;;;7.60;3.10;;;;;;;22.76;46.96;100010.72;4465853;32;34217;-84
2022/07/22 01:27:05;;;;;;;5.65;3.12;;;;;;;22.88;46.70;100009.81;4468987;32;33486;-83
2022/07/22 01:29:33;;;;;;;8.60;3.47;;;;;;;23.28;45.85;99999.19;4464633;32;33745;-83
2022/07/22 01:32:01;;;;;;;6.45;3.50;;;;;;;23.25;46.14;100007.09;4462311;32;33847;-85
2022/07/22 01:34:29;;;;;;;8.27;3.47;;;;;;;23.00;47.01;100000.13;4464717;32;33502;-82
2022/07/22 01:36:57;;;;;;;11.23;3.42;;;;;;;23.06;47.06;100010.69;4463910;32;33861;-83
2022/07/22 01:39:25;;;;;;;5.53;2.90;;;;;;;23.59;45.53;100008.75;4469464;32;33962;-83
2022/07/22 01:41:52;;;;;;;6.60;2.87;;;;;;;23.97;44.02;100016.50;4465869;32;33805;-85
2022/07/22 01:44:20;;;;;;;8.15;3.22;;;;;;;23.88;44.31;100013.91;4470121;32;33114;-84
2022/07/22 01:46:49;;;;;;;8.82;3.90;;;;;;;23.91;43.53;100005.94;4464102;32;34740;-86
2022/07/22 01:49:17;;;;;;;6.62;3.15;;;;;;;23.34;44.51;100004.44;4464767;32;34390;-85
2022/07/22 01:51:45;;;;;;;7.18;2.90;;;;;;;23.38;44.28;100001.78;4463311;32;34055;-84
2022/07/22 01:54:12;;;;;;;8.70;3.10;;;;;;;23.22;44.26;99988.63;4467145;32;33282;-84
2022/07/22 01:56:40;;;;;;;13.48;3.47;;;;;;;23.20;44.55;99998.34;4466693;32;32819;-84
2022/07/22 01:59:07;;;;;;;8.38;3.03;;;;;;;23.27;44.95;100000.03;4463579;32;33917;-84
2022/07/22 02:01:35;;;;;;;5.32;3.08;;;;;;;23.23;46.12;100000.94;4464855;32;33955;-84
2022/07/22 02:04:03;;;;;;;5.87;2.83;;;;;;;22.81;45.29;100005.44;4459240;32;33436;-84
2022/07/22 02:06:31;;;;;;;6.85;2.95;;;;;;;22.87;44.39;100008.09;4438531;32;32945;-84
2022/07/22 02:09:00;;;;;;;8.48;2.70;;;;;;;22.62;44.33;100011.62;4470098;32;34074;-84
2022/07/22 02:11:28;;;;;;;6.20;2.30;;;;;;;22.10;44.05;100018.62;4464696;32;32820;-84
2022/07/22 02:13:56;;;;;;;5.60;2.17;;;;;;;22.38;43.76;100016.91;4463240;32;33669;-84
2022/07/22 02:16:24;;;;;;;4.62;2.25;;;;;;;22.50;43.57;100018.69;4470600;32;34247;-84
2022/07/22 02:18:52;;;;;;;5.78;2.47;;;;;;;22.71;42.50;100022.19;4467538;32;33937;-84
2022/07/22 02:21:20;;;;;;;7.22;2.72;;;;;;;22.62;42.52;100027.47;4464370;32;34154;-84
2022/07/22 02:23:50;;;;;;;7.65;2.15;;;;;;;22.42;42.96;100032.75;4470121;32;32975;-84
2022/07/22 02:26:18;;;;;;;6.07;2.22;;;;;;;22.62;42.22;100022.19;4467528;32;34127;-83
2022/07/22 02:28:46;;;;;;;8.35;2.47;;;;;;;22.69;41.74;100023.94;4467188;32;34059;-84
2022/07/22 02:31:13;;;;;;;6.37;2.30;;;;;;;22.39;42.69;100025.72;4468829;32;33394;-84
2022/07/22 02:33:41;;;;;;;5.78;2.40;;;;;;;22.89;41.35;100026.53;4468227;32;32734;-84
2022/07/22 02:36:09;;;;;;;7.00;2.22;;;;;;;22.85;41.20;100025.69;4469094;32;33969;-84
2022/07/22 02:38:37;;;;;;;5.40;2.28;;;;;;;22.71;41.44;100027.47;4467525;32;34508;-84
2022/07/22 02:41:04;;;;;;;4.82;2.40;;;;;;;22.61;42.12;100033.63;4468845;32;34453;-84
2022/07/22 02:43:32;;;;;;;4.47;2.20;;;;;;;22.39;42.66;100041.56;4469562;32;34140;-84
2022/07/22 02:46:00;;;;;;;6.97;2.40;;;;;;;22.52;42.39;100032.78;4469101;32;33521;-84
2022/07/22 02:48:28;;;;;;;6.68;2.33;;;;;;;22.77;41.96;100032.72;4470345;32;33850;-84
2022/07/22 02:50:56;;;;;;;5.07;2.17;;;;;;;22.45;42.25;100035.41;4469370;32;33831;-84
2022/07/22 02:53:23;;;;;;;6.12;2.45;;;;;;;22.54;41.84;100028.38;4468789;32;34110;-84
2022/07/22 02:55:51;;;;;;;4.68;2.08;;;;;;;22.78;42.32;100029.22;4466389;32;33747;-84
2022/07/22 02:58:19;;;;;;;6.10;2.55;;;;;;;22.30;43.66;100036.28;4469761;32;33963;-84
2022/07/22 03:00:47;;;;;;;5.82;2.58;;;;;;;22.68;42.64;100038.03;4463614;32;33899;-84
2022/07/22 03:03:14;;;;;;;9.82;2.45;;;;;;;22.53;42.95;100038.94;4467091;32;33410;-84
2022/07/22 03:05:42;;;;;;;5.15;2.28;;;;;;;22.29;43.25;100035.41;4469684;32;34717;-84
2022/07/22 03:08:11;;;;;;;6.40;2.87;;;;;;;22.50;42.99;100037.19;4468417;32;34664;-84
2022/07/22 03:10:39;;;;;;;6.05;2.50;;;;;;;22.67;42.23;100031.00;4468731;32;34942;-84
2022/07/22 03:13:07;;;;;;;7.15;2.50;;;;;;;22.56;42.86;100039.81;4465787;32;33292;-84
2022/07/22 03:15:35;;;;;;;8.00;2.67;;;;;;;22.57;42.96;100036.25;4469770;32;34088;-84
2022/07/22 03:18:02;;;;;;;5.85;2.17;;;;;;;22.34;43.29;100032.75;4469166;32;33420;-84
2022/07/22 03:20:30;;;;;;;5.90;2.40;;;;;;;22.52;42.53;100040.69;4469638;32;33608;-84
2022/07/22 03:22:58;;;;;;;4.97;2.45;;;;;;;22.28;42.43;100038.03;4468994;32;33333;-83
2022/07/22 03:25:26;;;;;;;6.47;2.30;;;;;;;22.52;41.95;100040.69;4470286;32;33507;-83
2022/07/22 03:27:54;;;;;;;6.22;2.70;;;;;;;22.37;42.92;100044.19;4469377;32;33571;-84
2022/07/22 03:30:21;;;;;;;11.77;2.75;;;;;;;22.00;44.10;100051.16;4468645;32;34521;-83
2022/07/22 03:32:49;;;;;;;7.07;2.62;;;;;;;21.92;44.20;100047.59;4468906;32;33838;-83
2022/07/22 03:35:18;;;;;;;6.00;2.50;;;;;;;21.75;43.81;100050.19;4469130;32;33832;-83
2022/07/22 03:37:46;;;;;;;4.75;1.98;;;;;;;21.49;44.14;100050.97;4466613;32;33924;-83
2022/07/22 03:40:14;;;;;;;5.80;2.05;;;;;;;21.76;43.57;100052.84;4469628;32;33700;-82
2022/07/22 03:42:43;;;;;;;7.37;2.22;;;;;;;21.38;44.13;100060.56;4469913;32;33672;-82
2022/07/22 03:45:13;;;;;;;6.00;2.20;;;;;;;21.61;44.05;100050.13;4469288;32;34463;-82
2022/07/22 03:47:41;;;;;;;5.70;2.40;;;;;;;21.79;43.79;100044.94;4467100;32;34694;-82
2022/07/22 03:50:09;;;;;;;7.28;2.28;;;;;;;21.79;43.52;100058.13;4469545;32;33761;-83
2022/07/22 03:52:37;;;;;;;5.25;2.12;;;;;;;21.79;43.64;100060.75;4465876;32;34200;-83
2022/07/22 03:55:05;;;;;;;7.57;2.17;;;;;;;21.87;43.22;100055.50;4468437;32;34272;-83
2022/07/22 03:57:33;;;;;;;5.78;2.60;;;;;;;21.75;43.95;100051.09;4466758;32;33882;-83
2022/07/22 04:00:01;;;;;;;8.57;2.30;;;;;;;21.94;43.37;100053.75;4469516;32;33730;-83
2022/07/22 04:02:28;;;;;;;4.45;2.05;;;;;;;22.10;43.21;100055.56;4467731;32;33405;-83
2022/07/22 04:04:56;;;;;;;5.53;2.45;;;;;;;22.32;42.72;100051.22;4466554;32;33909;-83
2022/07/22 04:07:24;;;;;;;8.90;2.95;;;;;;;22.18;43.32;100053.81;4469572;32;34467;-83
2022/07/22 04:10:04;;;;;;;6.15;2.58;;;;;;;22.23;43.15;100045.91;4469990;32;34401;-83
2022/07/22 04:12:34;;;;;;;7.15;2.67;;;;;;;22.32;43.32;100045.06;4467625;32;33158;-82
2022/07/22 04:15:04;;;;;;;7.75;2.85;;;;;;;22.37;43.09;100048.59;4466337;32;33209;-82
2022/07/22 04:17:32;;;;;;;6.60;2.70;;;;;;;22.28;43.52;100048.59;4462459;32;33864;-82
2022/07/22 04:20:00;;;;;;;5.70;2.70;;;;;;;22.44;43.41;100055.62;4468513;32;33759;-82
2022/07/22 04:22:31;;;;;;;7.97;2.45;;;;;;;22.73;42.94;100057.37;4461171;32;33234;-83
2022/07/22 04:24:59;;;;;;;7.95;2.75;;;;;;;22.62;43.41;100043.31;4469743;32;33961;-83
2022/07/22 04:27:27;;;;;;;10.07;3.17;;;;;;;22.58;43.46;100043.31;4469450;32;34458;-83
2022/07/22 04:29:55;;;;;;;8.10;3.30;;;;;;;22.58;43.70;100043.31;4468760;32;33915;-83
2022/07/22 04:32:22;;;;;;;7.07;2.75;;;;;;;22.63;43.88;100042.44;4467013;32;33120;-83
2022/07/22 04:34:51;;;;;;;6.35;2.78;;;;;;;22.81;43.34;100044.16;4469263;32;33805;-83
2022/07/22 04:37:18;;;;;;;8.88;2.45;;;;;;;22.96;43.50;100047.66;4468268;32;33715;-83
2022/07/22 04:39:47;;;;;;;7.25;2.75;;;;;;;22.61;44.15;100046.84;4468999;32;33757;-82
2022/07/22 04:42:14;;;;;;;7.43;2.60;;;;;;;22.81;43.87;100049.44;4469378;32;32965;-83
2022/07/22 04:44:44;;;;;;;8.30;2.75;;;;;;;23.02;43.55;100048.53;4469504;32;34528;-83
2022/07/22 04:47:12;;;;;;;4.30;2.22;;;;;;;23.06;43.21;100047.69;4464601;32;33657;-83
2022/07/22 04:49:40;;;;;;;5.45;2.28;;;;;;;22.89;42.58;100045.94;4469591;32;33856;-83
2022/07/22 04:52:08;;;;;;;4.53;2.37;;;;;;;23.54;41.76;100045.75;4468828;32;34438;-84
2022/07/22 04:54:38;;;;;;;6.65;2.95;;;;;;;24.37;40.50;100042.66;4467614;32;33830;-83
2022/07/22 04:57:06;;;;;;;7.28;2.75;;;;;;;23.88;41.68;100043.87;4466564;32;33851;-83
2022/07/22 04:59:34;;;;;;;6.93;2.25;;;;;;;24.33;40.57;100046.22;4467341;32;33933;-87
2022/07/22 05:02:02;;;;;;;10.43;2.45;;;;;;;23.65;41.49;100041.31;4467441;32;33085;-86
2022/07/22 05:04:30;;;;;;;9.30;2.55;;;;;;;23.25;42.54;100044.09;4465994;32;33604;-83
2022/07/22 05:06:58;;;;;;;5.75;2.40;;;;;;;22.87;43.28;100041.50;4467354;32;33988;-83
2022/07/22 05:09:26;;;;;;;7.45;2.50;;;;;;;23.23;42.64;100043.22;4466866;32;33773;-86
2022/07/22 05:11:53;;;;;;;7.07;2.55;;;;;;;23.33;42.92;100047.63;4462930;32;34096;-86
2022/07/22 05:14:21;;;;;;;6.25;2.28;;;;;;;23.52;42.13;100051.06;4464414;32;34377;-84
2022/07/22 05:16:49;;;;;;;8.77;3.03;;;;;;;23.60;42.78;100052.78;4467855;32;34656;-86
2022/07/22 05:19:17;;;;;;;7.90;2.72;;;;;;;23.90;42.35;100067.69;4469688;32;33499;-84
2022/07/22 05:21:44;;;;;;;6.78;3.00;;;;;;;24.43;40.99;100063.78;4463974;32;33129;-86
2022/07/22 05:24:13;;;;;;;6.50;2.90;;;;;;;24.32;41.36;100065.66;4469718;32;33624;-86
2022/07/22 05:26:40;;;;;;;5.55;2.50;;;;;;;24.63;41.86;100061.03;4467308;32;33863;-84
2022/07/22 05:29:08;;;;;;;8.95;3.28;;;;;;;24.97;40.10;100065.13;4460216;32;33402;-87
2022/07/22 05:31:35;;;;;;;8.18;2.80;;;;;;;24.79;40.77;100067.06;4463959;32;32907;-85
2022/07/22 05:34:03;;;;;;;6.80;3.05;;;;;;;24.98;40.81;100069.53;4465598;32;33842;-85
2022/07/22 05:36:31;;;;;;;6.25;2.97;;;;;;;25.46;39.96;100070.81;4463665;32;33853;-86
2022/07/22 05:38:59;;;;;;;9.90;3.20;;;;;;;25.46;39.75;100067.28;4468977;32;34509;-85
2022/07/22 05:41:27;;;;;;;7.15;3.00;;;;;;;25.82;38.76;100057.94;4463981;32;35386;-86
2022/07/22 05:43:55;;;;;;;8.43;3.12;;;;;;;25.63;39.25;100062.66;4467246;32;33095;-86
2022/07/22 05:46:23;;;;;;;13.68;3.80;;;;;;;26.49;37.70;100064.06;4465544;32;33963;-85
2022/07/22 05:48:50;;;;;;;9.10;3.80;;;;;;;26.39;38.01;100065.13;4468538;32;32240;-87
2022/07/22 05:51:18;;;;;;;14.85;4.20;;;;;;;26.00;39.28;100062.19;4464875;32;32995;-84
2022/07/22 05:53:47;;;;;;;10.15;4.10;;;;;;;25.98;39.69;100071.94;4467769;32;34272;-87
2022/07/22 05:56:15;;;;;;;11.23;3.60;;;;;;;25.92;39.35;100072.00;4449131;32;33427;-84
2022/07/22 05:58:43;;;;;;;9.60;3.83;;;;;;;26.00;39.89;100077.19;4468515;32;33902;-85
2022/07/22 06:01:12;;;;;;;9.90;4.05;;;;;;;26.11;40.24;100071.75;4461079;32;33999;-86
2022/07/22 06:03:41;;;;;;;8.32;3.45;;;;;;;26.68;39.23;100066.47;4460667;32;33579;-85
2022/07/22 06:06:10;;;;;;;8.82;4.37;;;;;;;27.84;36.84;100063.31;4463392;32;33940;-87
2022/07/22 06:08:38;;;;;;;8.73;3.50;;;;;;;27.90;36.24;100065.00;4462131;32;34448;-85
2022/07/22 06:11:06;;;;;;;6.25;3.40;;;;;;;28.75;33.83;100063.87;4460288;32;33790;-85
2022/07/22 06:13:34;;;;;;;8.15;2.80;;;;;;;29.27;32.15;100056.31;4460846;32;34089;-85
2022/07/22 06:16:02;;;;;;;6.82;3.28;;;;;;;29.60;30.90;100065.13;4465981;32;33731;-85
2022/07/22 06:18:31;;;;;;;7.40;2.30;;;;;;;29.68;30.05;100061.37;4465844;32;33872;-85
2022/07/22 06:20:58;;;;;;;4.25;1.98;;;;;;;29.55;29.72;100058.19;4468771;32;33116;-85
2022/07/22 06:23:26;;;;;;;5.82;2.20;;;;;;;29.95;27.28;100071.22;4469378;32;33980;-85
2022/07/22 06:25:54;;;;;;;8.77;2.25;;;;;;;30.12;26.38;100062.69;4462496;32;34927;-85
2022/07/22 06:28:22;;;;;;;4.97;1.92;;;;;;;30.19;25.37;100058.91;4463701;32;33787;-85
2022/07/22 06:30:50;;;;;;;6.90;1.52;;;;;;;30.17;25.32;100059.88;4464211;32;33762;-85
2022/07/22 06:33:18;;;;;;;4.82;1.60;;;;;;;30.04;24.00;100053.16;4468427;32;33876;-86
2022/07/22 06:35:46;;;;;;;3.12;1.52;;;;;;;30.03;25.61;100056.78;4465054;32;34054;-85
2022/07/22 06:38:13;;;;;;;3.42;1.83;;;;;;;30.37;24.19;100061.94;4455290;32;33803;-86
2022/07/22 06:41:00;;;;;;;5.55;1.87;;;;;;;30.71;23.46;100063.47;4464561;32;33299;-87
2022/07/22 06:43:29;;;;;;;5.53;2.00;;;;;;;30.71;23.64;100066.16;4466554;32;33625;-87
2022/07/22 06:45:59;;;;;;;22.48;2.70;;;;;;;31.03;23.07;100064.22;4465678;32;34724;-86
2022/07/22 06:48:30;;;;;;;6.40;2.10;;;;;;;30.75;23.66;100068.69;4469215;32;33591;-86
2022/07/22 06:50:58;;;;;;;4.62;2.00;;;;;;;30.58;23.78;100065.72;4464642;32;32540;-88
2022/07/22 06:53:25;;;;;;;7.70;1.87;;;;;;;31.09;23.96;100056.81;4457798;32;34200;-87
2022/07/22 06:56:22;;;;;;;4.45;1.85;;;;;;;31.05;23.84;100065.03;4461955;32;34041;-87
2022/07/22 06:58:50;;;;;;;8.15;1.80;;;;;;;31.26;24.11;100055.34;4451206;32;34620;-87
2022/07/22 07:01:19;;;;;;;5.80;2.33;;;;;;;30.58;24.36;100052.34;4464119;32;33394;-85
2022/07/22 07:03:47;;;;;;;4.93;1.90;;;;;;;30.25;25.30;100052.50;4463102;32;33654;-87
2022/07/22 07:06:15;;;;;;;4.62;1.85;;;;;;;30.17;24.81;100051.84;4464844;32;33602;-87
2022/07/22 07:08:45;;;;;;;5.25;1.98;;;;;;;29.92;25.08;100055.31;4465206;32;33553;-88
2022/07/22 07:11:13;;;;;;;6.82;1.90;;;;;;;30.95;24.12;100056.47;4436752;32;32560;-88
2022/07/22 07:13:41;;;;;;;4.93;2.17;;;;;;;31.06;23.75;100051.59;4465242;32;33852;-87
2022/07/22 07:16:09;;;;;;;4.28;1.90;;;;;;;30.74;23.55;100050.87;4464767;32;34009;-88
2022/07/22 07:18:37;;;;;;;5.12;2.00;;;;;;;32.28;22.80;100055.91;4465077;32;33545;-86
2022/07/22 07:21:05;;;;;;;4.82;1.92;;;;;;;33.09;21.96;100046.22;4462930;32;31427;-89
2022/07/22 07:23:36;;;;;;;4.70;1.90;;;;;;;33.95;20.65;100044.09;4467311;32;32249;-88
2022/07/22 07:26:05;;;;;;;9.93;2.20;;;;;;;34.85;19.95;100046.84;4464491;32;33558;-87
2022/07/22 07:28:33;;;;;;;3.58;2.08;;;;;;;35.98;19.28;100043.47;4465095;32;34246;-89
2022/07/22 07:31:10;;;;;;;5.47;1.77;;;;;;;36.88;17.83;100048.13;4455576;32;31742;-88
2022/07/22 07:33:38;;;;;;;6.60;2.10;;;;;;;37.48;17.50;100043.59;4447791;32;33436;-88
2022/07/22 07:36:20;;;;;;;3.55;1.62;;;;;;;38.33;16.62;100036.28;4467727;32;33833;-92
2022/07/22 07:38:57;;;;;;;4.12;1.58;;;;;;;36.45;17.09;100037.19;4439780;32;34895;-89
2022/07/22 07:58:46;;;;;;;11.55;2.95;;;;;;;38.05;17.05;100027.25;4439864;32;34320;-91
2022/07/22 08:01:56;;;;;;;6.75;2.12;;;;;;;38.69;16.38;100032.06;4449339;32;36695;-89
2022/07/22 08:04:30;;;;;;;6.62;2.30;;;;;;;39.11;15.72;100033.63;4446387;32;33461;-90
2022/07/22 08:07:07;;;;;;;6.05;2.05;;;;;;;38.68;15.88;100033.91;4452811;32;32981;-93
2022/07/22 08:13:25;;;;;;;7.75;2.72;;;;;;;35.85;17.31;100026.25;4465827;32;36020;-90
2022/07/22 08:16:01;;;;;;;9.25;2.28;;;;;;;35.90;17.87;100032.25;4447945;32;32919;-91
2022/07/22 08:18:29;;;;;;;7.93;2.10;;;;;;;36.77;17.01;100031.72;4459982;32;34030;-91
2022/07/22 08:20:57;;;;;;;8.68;2.53;;;;;;;36.84;16.86;100038.47;4447120;32;32405;-91
2022/07/22 08:23:29;;;;;;;7.05;2.10;;;;;;;38.56;16.14;100032.06;4438761;32;33534;-89
2022/07/22 08:25:56;;;;;;;9.05;2.28;;;;;;;39.13;15.54;100025.41;4438900;32;33189;-91
2022/07/22 08:28:24;;;;;;;4.87;2.00;;;;;;;39.98;14.63;100017.47;4468998;32;33187;-94
2022/07/22 08:30:52;;;;;;;7.90;1.80;;;;;;;40.40;14.68;100017.09;4463211;32;32926;-90
2022/07/22 08:33:20;;;;;;;5.80;2.10;;;;;;;40.62;15.25;100021.72;4467088;32;35046;-91
2022/07/22 08:35:48;;;;;;;5.50;2.20;;;;;;;39.37;15.16;100021.91;4463634;32;33812;-90
2022/07/22 08:38:15;;;;;;;5.93;2.33;;;;;;;37.85;16.49;100027.72;4448543;32;31774;-91
2022/07/22 08:40:43;;;;;;;10.43;2.53;;;;;;;36.20;18.15;100027.84;4460022;32;36760;-93
2022/07/22 08:43:11;;;;;;;9.35;2.70;;;;;;;37.43;17.48;100026.78;4464820;32;34772;-91
2022/07/22 08:45:40;;;;;;;12.20;2.78;;;;;;;37.44;17.48;100028.53;4434735;32;32342;-92
2022/07/22 08:48:08;;;;;;;6.47;2.30;;;;;;;37.07;17.63;100022.69;4435219;32;33434;-92
2022/07/22 08:50:39;;;;;;;8.48;2.60;;;;;;;38.64;16.44;100024.25;4450604;32;33504;-91
2022/07/22 08:53:13;;;;;;;7.47;2.50;;;;;;;38.41;16.16;100025.81;4464859;32;34036;-92
2022/07/22 08:55:46;;;;;;;10.10;2.60;;;;;;;37.13;18.09;100016.97;4467236;32;33846;-90
2022/07/22 08:58:15;;;;;;;17.43;2.57;;;;;;;35.26;18.78;100029.47;4465531;32;31854;-91
2022/07/22 09:00:43;;;;;;;6.37;3.08;;;;;;;37.50;17.75;100026.28;4448533;32;32594;-93
2022/07/22 09:03:25;;;;;;;5.85;2.20;;;;;;;38.07;16.74;100019.94;4465188;32;32386;-92
2022/07/22 09:05:54;;;;;;;5.12;2.72;;;;;;;39.47;15.88;100023.03;4454903;32;31892;-91
2022/07/22 09:08:22;;;;;;;6.93;2.95;;;;;;;39.68;14.89;100018.75;4455111;32;34238;-92
2022/07/22 09:10:50;;;;;;;5.75;3.05;;;;;;;39.86;15.38;100010.22;4448315;32;33392;-93
2022/07/22 09:13:19;;;;;;;15.18;3.03;;;;;;;39.76;16.17;100014.59;4463854;32;33665;-91
2022/07/22 09:19:02;;;;;;;6.68;3.70;;;;;;;39.85;17.17;100012.06;4461583;32;32352;-91
2022/07/22 09:21:31;;;;;;;7.53;3.53;;;;;;;39.27;18.56;100011.75;4438516;32;32210;-91
2022/07/22 09:24:00;;;;;;;8.15;3.75;;;;;;;38.49;19.72;100007.19;4450336;32;33227;-91
2022/07/22 09:29:37;;;;;;;10.38;3.80;;;;;;;39.04;18.55;99999.84;4460145;32;35072;-93
2022/07/22 09:32:06;;;;;;;8.02;3.85;;;;;;;38.06;18.99;100001.09;4444298;32;33564;-91
2022/07/22 09:34:37;;;;;;;7.03;3.72;;;;;;;37.13;19.84;100003.44;4432170;32;33029;-90
2022/07/22 09:37:06;;;;;;;12.43;3.55;;;;;;;38.58;18.17;100000.31;4458779;32;33541;-90
2022/07/22 09:39:35;;;;;;;7.10;3.35;;;;;;;36.66;19.85;100012.59;4456919;32;33366;-89
2022/07/22 09:42:06;;;;;;;10.30;4.30;;;;;;;37.14;19.99;100003.34;4461777;32;33392;-89
2022/07/22 09:44:34;;;;;;;7.12;3.47;;;;;;;37.25;19.69;100005.38;4447915;32;33135;-91
2022/07/22 09:47:03;;;;;;;7.15;3.67;;;;;;;38.25;19.44;99998.03;4448762;32;33752;-91
2022/07/22 09:49:35;;;;;;;6.90;3.58;;;;;;;37.82;19.16;99995.47;4468110;32;33552;-92
2022/07/22 09:52:06;;;;;;;9.32;4.10;;;;;;;37.30;20.05;99986.16;4452920;32;33057;-92
2022/07/22 09:54:35;;;;;;;10.07;4.15;;;;;;;37.60;20.25;99996.88;4465409;32;34690;-91
2022/07/22 09:57:03;;;;;;;10.43;4.22;;;;;;;37.44;21.23;99988.00;4447265;32;32546;-92
2022/07/22 09:59:31;;;;;;;5.97;4.40;;;;;;;38.00;20.47;99993.37;4437813;32;33350;-92
2022/07/22 10:02:03;;;;;;;8.48;4.75;;;;;;;38.06;21.21;99991.13;4449071;32;33394;-90
2022/07/22 10:04:33;;;;;;;8.82;4.90;;;;;;;38.90;20.46;99987.22;4467623;32;33263;-91
2022/07/22 10:07:02;;;;;;;11.60;4.93;;;;;;;38.29;21.78;99986.06;4440660;32;32616;-92
2022/07/22 10:09:31;;;;;;;10.82;4.80;;;;;;;38.92;20.24;99985.31;4466505;32;32935;-90
2022/07/22 10:12:00;;;;;;;8.90;4.60;;;;;;;38.64;21.13;99985.50;4436101;32;32380;-93
2022/07/22 10:14:28;;;;;;;13.80;5.32;;;;;;;38.96;20.45;99979.66;4467563;32;34630;-91
2022/07/22 10:16:56;;;;;;;8.68;4.95;;;;;;;37.50;22.74;99982.19;4451647;32;32238;-90
2022/07/22 10:19:30;;;;;;;;;;;;;;;36.90;23.17;99978.72;4460935;32;33427;-90
2022/07/22 10:21:58;;;;;;;7.20;4.95;;;;;;;38.19;21.99;99974.09;4465198;32;33460;-91
2022/07/22 10:24:26;;;;;;;7.80;4.72;;;;;;;37.50;21.79;99972.25;4441141;32;34133;-90
2022/07/22 10:26:56;;;;;;;9.40;5.30;;;;;;;38.76;20.98;99967.53;4457951;32;33955;-90
2022/07/22 10:29:46;;;;;;;7.37;5.10;;;;;;;38.59;20.87;99971.41;4467745;32;32849;-91
2022/07/22 10:32:18;;;;;;;8.88;4.93;;;;;;;39.29;20.04;99961.03;4461114;32;33756;-91
2022/07/22 10:38:19;;;;;;;7.47;4.80;;;;;;;39.52;19.09;99966.62;4463442;32;34727;-92
2022/07/22 10:40:51;;;;;;;8.43;4.78;;;;;;;39.59;19.88;99962.47;4443705;32;31690;-89
2022/07/22 10:43:27;;;;;;;7.60;4.53;;;;;;;39.68;20.06;99961.81;4456256;32;32190;-90
2022/07/22 10:45:58;;;;;;;8.63;5.00;;;;;;;39.53;19.33;99962.94;4444036;32;32404;-89
2022/07/22 10:48:45;;;;;;;9.10;4.60;;;;;;;38.69;20.96;99961.66;4465289;32;34139;-90
2022/07/22 10:51:21;;;;;;;7.15;4.03;;;;;;;39.95;18.21;99963.47;4450757;32;32815;-91
2022/07/22 10:54:02;;;;;;;9.77;4.50;;;;;;;40.06;18.05;99958.09;4465948;32;33770;-92
2022/07/22 10:56:35;;;;;;;7.82;4.18;;;;;;;40.37;17.63;99958.47;4461631;32;34041;-90
2022/07/22 10:59:10;;;;;;;5.75;3.90;;;;;;;38.69;20.20;99946.31;4465295;32;33512;-91
2022/07/22 11:01:43;;;;;;;8.35;3.67;;;;;;;39.40;18.33;99951.22;4469808;32;33305;-90
2022/07/22 11:04:23;;;;;;;8.43;4.10;;;;;;;39.13;18.45;99949.56;4469146;32;33704;-91
2022/07/22 11:06:56;;;;;;;5.18;3.20;;;;;;;39.65;18.16;99947.59;4448854;32;33362;-91
2022/07/22 11:09:32;;;;;;;8.63;3.25;;;;;;;38.66;17.62;99934.84;4441969;32;32128;-94
2022/07/22 11:12:00;;;;;;;6.72;3.33;;;;;;;39.48;17.14;99935.28;4448026;32;32208;-90
2022/07/22 11:14:30;;;;;;;7.22;3.97;;;;;;;39.94;17.74;99940.03;4435150;32;32730;-91
2022/07/22 11:17:06;;;;;;;6.82;3.53;;;;;;;39.47;18.53;99939.87;4448917;32;32991;-90
2022/07/22 11:19:44;;;;;;;7.05;3.70;;;;;;;39.35;18.14;99935.31;4450630;32;32063;-92
2022/07/22 11:22:32;;;;;;;6.50;3.67;;;;;;;39.67;17.78;99932.94;4455701;32;32689;-93
2022/07/22 11:25:03;;;;;;;8.18;3.80;;;;;;;39.99;17.84;99924.28;4460380;32;33964;-89
2022/07/22 11:27:31;;;;;;;7.57;3.47;;;;;;;39.81;18.11;99933.75;4461617;32;33702;-89
2022/07/22 11:29:59;;;;;;;5.85;3.83;;;;;;;39.95;18.00;99920.06;4464777;32;34649;-88
2022/07/22 11:32:30;;;;;;;9.27;4.00;;;;;;;40.42;17.74;99917.41;4449776;32;33601;-88
2022/07/22 11:34:58;;;;;;;5.95;3.53;;;;;;;41.29;17.34;99916.87;4450682;32;32707;-87
2022/07/22 11:37:27;;;;;;;6.53;3.80;;;;;;;41.51;16.34;99905.94;4450137;32;34079;-87
2022/07/22 11:40:15;;;;;;;9.43;3.60;;;;;;;41.01;16.36;99908.22;4450778;32;33645;-89
2022/07/22 11:42:43;;;;;;;9.52;3.50;;;;;;;41.18;16.98;99907.69;4466095;32;34575;-91
2022/07/22 11:45:13;;;;;;;9.85;3.55;;;;;;;40.47;16.91;99904.31;4463478;32;33804;-90
2022/07/22 11:47:49;;;;;;;11.15;3.58;;;;;;;40.59;16.59;99903.38;4457558;32;34604;-91
2022/07/22 11:50:29;;;;;;;8.18;3.62;;;;;;;41.21;15.72;99899.34;4456740;32;33967;-88
2022/07/22 11:52:56;;;;;;;7.85;3.50;;;;;;;40.62;16.67;99902.25;4465177;32;34039;-88
2022/07/22 11:55:24;;;;;;;5.12;3.35;;;;;;;39.94;17.36;99893.06;4467083;32;33187;-89
2022/07/22 11:57:52;;;;;;;7.35;3.60;;;;;;;39.75;17.64;99896.25;4463777;32;33796;-91
2022/07/22 12:00:20;;;;;;;5.68;3.80;;;;;;;39.96;17.31;99891.94;4465539;32;34472;-90
2022/07/22 12:02:47;;;;;;;6.93;3.80;;;;;;;39.80;18.04;99894.09;4427330;32;31349;-92
2022/07/22 12:05:15;;;;;;;6.93;3.37;;;;;;;40.55;17.11;99892.84;4445895;32;32730;-90
2022/07/22 12:08:01;;;;;;;6.10;3.47;;;;;;;40.08;17.59;99882.88;4441471;32;33035;-93